Sterling, Illinois
Current Conditions -  °F | °C
As of 3:55 AM on Sunday 21 Dec 2014 (Local Time) from KSQI Reporting Station
Overcast Overcast  
Wind Chill: 30°   Ceiling: 3900
Heat Index: 34°   Visibility: 5mi
Dew Point: 28°   Wind: 5mph
Humidity: 81%   Direction: 160°SSE
Pressure: 30.18"   Gusts: NA
Location:  41.79°N, 89.7°W
Report Text: KSQI 210955Z 16004KT 5SM OVC039 01/M02 A3018 RMK AO1
Loading
Personal Weather Stations






























Interactive Weather Map New forecast layout! Learn more

10-Day Weather Forecast

Advertisements
Track Severe Weather on mobile